Time;durP1;ratioP1;P1;durP2;ratioP2;P2;SDS_P1;SDS_P2;PMS_P1;PMS_P2;Temp;Humidity;BMP_temperature;BMP_pressure;BME280_temperature;BME280_humidity;BME280_pressure;Samples;Min_cycle;Max_cycle;Signal;HPM_P1;HPM_P2
2021/06/12 00:00:39;;;;;;;3.37;2.70;;;;;;;;;;5117528;27;20475;-70
2021/06/12 00:03:07;;;;;;;5.60;3.10;;;;;;;;;;5102288;28;20452;-71
2021/06/12 00:05:38;;;;;;;6.30;3.60;;;;;;;;;;5108826;27;20886;-72
2021/06/12 00:08:07;;;;;;;3.80;3.40;;;;;;;;;;5108683;27;20936;-71
2021/06/12 00:10:35;;;;;;;6.60;3.70;;;;;;;;;;5122426;27;20462;-70
2021/06/12 00:13:03;;;;;;;6.93;3.93;;;;;;;;;;5122485;27;20451;-70
2021/06/12 00:15:30;;;;;;;7.30;4.13;;;;;;;;;;5120576;27;20472;-70
2021/06/12 00:17:58;;;;;;;5.83;4.30;;;;;;;;;;5120132;27;20486;-70
2021/06/12 00:20:26;;;;;;;7.70;3.37;;;;;;;;;;5121018;27;20473;-71
2021/06/12 00:22:53;;;;;;;14.73;4.40;;;;;;;;;;5119807;27;20549;-70
2021/06/12 00:25:23;;;;;;;4.97;3.87;;;;;;;;;;5120994;27;20469;-70
2021/06/12 00:27:50;;;;;;;5.00;3.60;;;;;;;;;;5119773;27;20497;-70
2021/06/12 00:30:18;;;;;;;4.67;2.80;;;;;;;;;;5120136;27;20597;-70
2021/06/12 00:32:45;;;;;;;6.63;3.17;;;;;;;;;;5120217;27;20552;-71
2021/06/12 00:35:17;;;;;;;5.70;3.60;;;;;;;;;;5120841;27;20470;-70
2021/06/12 00:37:45;;;;;;;4.83;2.70;;;;;;;;;;5120203;27;20574;-71
2021/06/12 00:40:14;;;;;;;4.77;3.00;;;;;;;;;;5119688;27;20531;-71
2021/06/12 00:42:46;;;;;;;5.30;2.97;;;;;;;;;;5120472;27;20541;-70
2021/06/12 00:45:14;;;;;;;3.83;2.57;;;;;;;;;;5120624;27;20458;-70
2021/06/12 00:47:41;;;;;;;4.10;3.07;;;;;;;;;;5120890;27;20554;-70
2021/06/12 00:50:09;;;;;;;4.30;2.90;;;;;;;;;;5121342;27;20879;-70
2021/06/12 00:52:37;;;;;;;4.30;3.00;;;;;;;;;;5120333;27;20490;-71
2021/06/12 00:55:05;;;;;;;5.03;3.17;;;;;;;;;;5120710;27;20515;-71
2021/06/12 00:57:33;;;;;;;4.50;3.20;;;;;;;;;;5119766;27;20565;-71
2021/06/12 01:00:02;;;;;;;4.77;3.40;;;;;;;;;;5119134;27;20467;-71
2021/06/12 01:02:32;;;;;;;7.43;3.40;;;;;;;;;;5119210;27;20527;-71
2021/06/12 01:04:59;;;;;;;4.57;3.17;;;;;;;;;;5120585;27;20477;-70
2021/06/12 01:07:26;;;;;;;5.07;2.90;;;;;;;;;;5120266;27;20545;-70
2021/06/12 01:09:54;;;;;;;5.47;3.00;;;;;;;;;;5120027;27;20506;-71
2021/06/12 01:12:23;;;;;;;4.63;3.20;;;;;;;;;;5119981;27;20533;-71
2021/06/12 01:14:52;;;;;;;5.53;3.37;;;;;;;;;;5119344;27;20495;-72
2021/06/12 01:17:23;;;;;;;6.40;3.63;;;;;;;;;;5119445;27;20490;-71
2021/06/12 01:20:00;;;;;;;4.23;2.73;;;;;;;;;;5119390;27;20492;-71
2021/06/12 01:22:32;;;;;;;6.03;3.80;;;;;;;;;;5119689;27;20714;-71
2021/06/12 01:25:03;;;;;;;4.97;3.43;;;;;;;;;;5120018;27;20463;-72
2021/06/12 01:27:49;;;;;;;6.50;3.10;;;;;;;;;;5119570;27;20523;-71
2021/06/12 01:30:19;;;;;;;5.17;3.53;;;;;;;;;;5119822;27;20690;-71
2021/06/12 01:32:50;;;;;;;5.70;3.03;;;;;;;;;;5119541;27;20775;-71
2021/06/12 01:35:25;;;;;;;6.07;3.13;;;;;;;;;;5118992;27;20462;-71
2021/06/12 01:37:53;;;;;;;4.10;3.13;;;;;;;;;;5119212;27;20485;-71
2021/06/12 01:40:21;;;;;;;5.73;3.10;;;;;;;;;;5119321;27;20562;-71
2021/06/12 01:42:49;;;;;;;8.00;3.40;;;;;;;;;;5119072;27;21071;-70
2021/06/12 01:45:18;;;;;;;5.63;3.27;;;;;;;;;;5118866;27;20466;-71
2021/06/12 01:47:47;;;;;;;5.13;4.37;;;;;;;;;;5118569;27;20462;-71
2021/06/12 01:50:14;;;;;;;5.00;3.27;;;;;;;;;;5119608;27;20528;-71
2021/06/12 01:52:43;;;;;;;4.13;2.70;;;;;;;;;;5118664;27;20450;-72
2021/06/12 01:55:11;;;;;;;5.97;2.90;;;;;;;;;;5118842;27;20486;-71
2021/06/12 01:57:40;;;;;;;4.50;2.83;;;;;;;;;;5119051;27;20593;-71
2021/06/12 02:00:08;;;;;;;4.50;3.50;;;;;;;;;;5118624;27;20470;-71
2021/06/12 02:02:37;;;;;;;5.67;2.87;;;;;;;;;;5119281;27;20477;-70
2021/06/12 02:05:05;;;;;;;4.03;2.87;;;;;;;;;;5118759;27;20549;-70
2021/06/12 02:07:33;;;;;;;5.60;3.70;;;;;;;;;;5119302;27;20455;-73
2021/06/12 02:10:01;;;;;;;6.43;3.40;;;;;;;;;;5119418;27;20938;-70
2021/06/12 02:12:29;;;;;;;4.40;3.37;;;;;;;;;;5118255;27;20541;-70
2021/06/12 02:14:58;;;;;;;5.87;3.20;;;;;;;;;;5118503;27;20474;-71
2021/06/12 02:17:25;;;;;;;5.30;2.80;;;;;;;;;;5118872;27;20581;-70
2021/06/12 02:19:54;;;;;;;5.13;3.40;;;;;;;;;;5118228;27;20450;-71
2021/06/12 02:22:21;;;;;;;4.93;3.13;;;;;;;;;;5118407;27;20490;-70
2021/06/12 02:24:49;;;;;;;5.20;3.07;;;;;;;;;;5118933;27;20794;-70
2021/06/12 02:27:19;;;;;;;5.87;2.87;;;;;;;;;;5117715;27;20455;-70
2021/06/12 02:29:47;;;;;;;4.90;3.63;;;;;;;;;;5118031;27;20809;-70
2021/06/12 02:32:14;;;;;;;5.00;2.90;;;;;;;;;;5117635;27;20459;-70
2021/06/12 02:34:42;;;;;;;5.00;3.40;;;;;;;;;;5119057;27;20510;-71
2021/06/12 02:37:10;;;;;;;4.53;3.10;;;;;;;;;;5118769;27;20487;-70
2021/06/12 02:39:38;;;;;;;4.03;2.90;;;;;;;;;;5118696;27;20545;-70
2021/06/12 02:42:06;;;;;;;4.60;3.40;;;;;;;;;;5118723;27;20451;-71
2021/06/12 02:44:33;;;;;;;6.07;3.10;;;;;;;;;;5119639;27;20736;-70
2021/06/12 02:47:02;;;;;;;5.87;4.10;;;;;;;;;;5118455;27;20496;-70
2021/06/12 02:49:32;;;;;;;5.40;4.00;;;;;;;;;;5118431;27;20866;-70
2021/06/12 02:52:00;;;;;;;6.60;3.97;;;;;;;;;;5118426;27;20462;-70
2021/06/12 02:54:29;;;;;;;10.83;4.03;;;;;;;;;;5118482;27;21048;-70
2021/06/12 02:56:57;;;;;;;5.90;3.90;;;;;;;;;;5118680;27;20554;-70
2021/06/12 02:59:25;;;;;;;5.50;3.93;;;;;;;;;;5117398;27;20527;-71
2021/06/12 03:01:53;;;;;;;5.03;3.90;;;;;;;;;;5118036;27;20454;-70
2021/06/12 03:04:21;;;;;;;4.77;3.57;;;;;;;;;;5117281;27;20470;-70
2021/06/12 03:06:52;;;;;;;5.87;4.87;;;;;;;;;;5114823;27;20478;-71
2021/06/12 03:09:21;;;;;;;7.83;5.13;;;;;;;;;;5102533;27;20555;-70
2021/06/12 03:11:50;;;;;;;6.50;4.93;;;;;;;;;;5099144;27;20542;-70
2021/06/12 03:14:18;;;;;;;5.43;4.00;;;;;;;;;;5098604;27;20529;-70
2021/06/12 03:16:46;;;;;;;5.40;4.33;;;;;;;;;;5097817;27;20814;-70
2021/06/12 03:19:15;;;;;;;5.50;4.23;;;;;;;;;;5097778;27;20467;-70
2021/06/12 03:21:42;;;;;;;7.00;4.93;;;;;;;;;;5097717;27;20538;-71
2021/06/12 03:24:11;;;;;;;6.10;4.40;;;;;;;;;;5097654;27;20467;-71
2021/06/12 03:26:38;;;;;;;7.37;4.83;;;;;;;;;;5097770;27;20471;-70
2021/06/12 03:29:07;;;;;;;6.53;4.63;;;;;;;;;;5097347;27;20743;-71
2021/06/12 03:31:35;;;;;;;7.97;4.90;;;;;;;;;;5097948;27;20467;-70
2021/06/12 03:34:02;;;;;;;5.60;4.57;;;;;;;;;;5098994;27;20463;-70
2021/06/12 03:36:30;;;;;;;6.73;4.10;;;;;;;;;;5098060;27;21094;-70
2021/06/12 03:38:57;;;;;;;8.10;4.80;;;;;;;;;;5097655;27;20478;-70
2021/06/12 03:41:25;;;;;;;7.10;4.97;;;;;;;;;;5097424;27;20463;-70
2021/06/12 03:43:52;;;;;;;7.80;6.03;;;;;;;;;;5097212;27;20462;-70
2021/06/12 03:46:21;;;;;;;8.03;5.60;;;;;;;;;;5096790;28;20712;-70
2021/06/12 03:48:51;;;;;;;7.00;5.23;;;;;;;;;;5096747;28;20452;-70
2021/06/12 03:51:21;;;;;;;7.23;5.17;;;;;;;;;;5096232;28;20456;-70
2021/06/12 03:53:49;;;;;;;15.03;5.83;;;;;;;;;;5096695;28;20827;-70
2021/06/12 03:56:17;;;;;;;9.77;6.00;;;;;;;;;;5096679;28;20460;-70
2021/06/12 03:58:45;;;;;;;7.63;5.60;;;;;;;;;;5108448;27;20455;-70
2021/06/12 04:01:13;;;;;;;11.00;6.17;;;;;;;;;;5117155;27;20549;-70
2021/06/12 04:03:43;;;;;;;7.93;5.20;;;;;;;;;;5104675;28;20505;-70
2021/06/12 04:06:11;;;;;;;7.97;5.90;;;;;;;;;;5097074;28;20490;-70
2021/06/12 04:08:38;;;;;;;7.80;5.93;;;;;;;;;;5096147;28;20459;-70
2021/06/12 04:11:05;;;;;;;7.70;5.33;;;;;;;;;;5096222;28;20835;-71
2021/06/12 04:13:32;;;;;;;8.33;5.97;;;;;;;;;;5096402;28;20452;-70
2021/06/12 04:16:00;;;;;;;10.57;6.80;;;;;;;;;;5096446;28;20502;-70
2021/06/12 04:18:27;;;;;;;8.70;7.03;;;;;;;;;;5096431;28;20825;-70
2021/06/12 04:20:56;;;;;;;9.13;6.20;;;;;;;;;;5096467;28;20540;-70
2021/06/12 04:23:24;;;;;;;9.37;7.13;;;;;;;;;;5096525;28;20466;-70
2021/06/12 04:25:51;;;;;;;11.53;6.60;;;;;;;;;;5095635;28;20478;-70
2021/06/12 04:28:18;;;;;;;10.70;8.33;;;;;;;;;;5096777;28;20604;-70
2021/06/12 04:30:45;;;;;;;11.43;7.50;;;;;;;;;;5096992;28;20528;-70
2021/06/12 04:33:13;;;;;;;9.80;7.20;;;;;;;;;;5096766;28;20584;-70
2021/06/12 04:35:40;;;;;;;9.83;7.90;;;;;;;;;;5096567;28;20456;-70
2021/06/12 04:38:08;;;;;;;12.10;7.63;;;;;;;;;;5096906;28;20483;-70
2021/06/12 04:40:36;;;;;;;8.47;7.27;;;;;;;;;;5096582;28;20550;-70
2021/06/12 04:43:04;;;;;;;10.40;7.70;;;;;;;;;;5096893;28;20540;-70
2021/06/12 04:45:31;;;;;;;13.13;7.77;;;;;;;;;;5096365;28;20529;-70
2021/06/12 04:47:58;;;;;;;11.70;8.63;;;;;;;;;;5096549;28;20465;-70
2021/06/12 04:50:26;;;;;;;14.30;10.30;;;;;;;;;;5096604;28;20922;-70
2021/06/12 04:52:53;;;;;;;16.33;9.73;;;;;;;;;;5097147;28;20534;-70
2021/06/12 04:55:22;;;;;;;14.37;10.47;;;;;;;;;;5097981;28;20947;-70
2021/06/12 04:57:49;;;;;;;14.63;11.50;;;;;;;;;;5099836;28;20582;-70
2021/06/12 05:00:16;;;;;;;14.53;11.20;;;;;;;;;;5099924;28;20521;-70
2021/06/12 05:02:44;;;;;;;16.13;10.40;;;;;;;;;;5104315;28;20466;-70
2021/06/12 05:05:12;;;;;;;13.97;10.97;;;;;;;;;;5120775;27;21027;-70
2021/06/12 05:07:45;;;;;;;18.67;11.90;;;;;;;;;;5120165;27;20925;-70
2021/06/12 05:10:12;;;;;;;17.57;12.43;;;;;;;;;;5112803;27;20542;-70
2021/06/12 05:12:41;;;;;;;15.60;11.43;;;;;;;;;;5100071;28;20499;-70
2021/06/12 05:15:10;;;;;;;17.80;12.40;;;;;;;;;;5101230;28;20524;-70
2021/06/12 05:17:40;;;;;;;18.33;12.93;;;;;;;;;;5119280;27;20483;-70
2021/06/12 05:20:08;;;;;;;17.90;12.60;;;;;;;;;;5120754;27;20456;-70
2021/06/12 05:22:36;;;;;;;18.27;13.87;;;;;;;;;;5119772;27;20481;-70
2021/06/12 05:25:03;;;;;;;17.33;12.17;;;;;;;;;;5109090;28;20534;-70
2021/06/12 05:27:30;;;;;;;16.20;12.20;;;;;;;;;;5099785;28;20455;-71
2021/06/12 05:29:59;;;;;;;16.73;11.43;;;;;;;;;;5099801;28;20548;-70
2021/06/12 05:32:26;;;;;;;14.97;11.47;;;;;;;;;;5099384;28;20806;-71
2021/06/12 05:34:56;;;;;;;19.13;12.20;;;;;;;;;;5099307;28;20466;-70
2021/06/12 05:37:23;;;;;;;18.23;12.97;;;;;;;;;;5099366;28;20479;-70
2021/06/12 05:39:50;;;;;;;16.83;12.67;;;;;;;;;;5098492;28;20495;-70
2021/06/12 05:42:19;;;;;;;19.00;13.03;;;;;;;;;;5099567;28;20507;-71
2021/06/12 05:44:49;;;;;;;19.93;13.57;;;;;;;;;;5104419;27;20470;-71
2021/06/12 05:47:18;;;;;;;19.63;13.40;;;;;;;;;;5119245;27;20480;-73
2021/06/12 05:49:46;;;;;;;18.03;14.10;;;;;;;;;;5118801;27;20827;-70
2021/06/12 05:52:13;;;;;;;19.13;15.30;;;;;;;;;;5119619;27;20462;-70
2021/06/12 05:54:40;;;;;;;21.80;15.43;;;;;;;;;;5099064;28;21047;-70
2021/06/12 05:57:11;;;;;;;18.13;13.60;;;;;;;;;;5099682;28;20578;-71
2021/06/12 05:59:41;;;;;;;20.23;14.97;;;;;;;;;;5104987;28;20530;-70
2021/06/12 06:02:08;;;;;;;21.67;13.50;;;;;;;;;;5109031;28;20462;-70
2021/06/12 06:04:37;;;;;;;20.23;13.97;;;;;;;;;;5118986;27;20445;-71
2021/06/12 06:07:05;;;;;;;20.80;15.20;;;;;;;;;;5102176;28;20522;-71
2021/06/12 06:09:33;;;;;;;17.87;14.00;;;;;;;;;;5100063;28;20515;-71
2021/06/12 06:12:01;;;;;;;20.63;14.17;;;;;;;;;;5100794;28;20736;-70
2021/06/12 06:14:32;;;;;;;19.00;13.90;;;;;;;;;;5120049;27;20451;-69
2021/06/12 06:17:00;;;;;;;19.43;13.20;;;;;;;;;;5118445;27;20518;-69
2021/06/12 06:19:27;;;;;;;17.57;13.23;;;;;;;;;;5108285;28;20533;-70
2021/06/12 06:21:55;;;;;;;19.40;13.33;;;;;;;;;;5114701;27;20494;-70
2021/06/12 06:24:23;;;;;;;16.80;12.40;;;;;;;;;;5117786;27;20455;-70
2021/06/12 06:26:51;;;;;;;17.90;13.87;;;;;;;;;;5118477;27;20466;-70
2021/06/12 06:29:21;;;;;;;18.90;12.37;;;;;;;;;;5118365;27;20462;-69
2021/06/12 06:31:48;;;;;;;19.27;12.57;;;;;;;;;;5102661;27;20464;-69
2021/06/12 06:34:16;;;;;;;19.57;12.50;;;;;;;;;;5109102;27;20443;-70
2021/06/12 06:36:43;;;;;;;16.70;12.70;;;;;;;;;;5134350;27;20515;-70
2021/06/12 06:39:17;;;;;;;17.83;13.50;;;;;;;;;;5115911;27;20474;-70
2021/06/12 06:41:45;;;;;;;16.40;11.53;;;;;;;;;;5111286;28;20492;-70
2021/06/12 06:44:13;;;;;;;17.30;13.50;;;;;;;;;;5117175;27;20451;-69
2021/06/12 06:46:41;;;;;;;16.23;12.37;;;;;;;;;;5115764;27;20447;-69
2021/06/12 06:49:08;;;;;;;18.87;13.57;;;;;;;;;;5114814;27;20773;-71
2021/06/12 06:51:36;;;;;;;19.33;13.40;;;;;;;;;;5118127;27;20446;-69
2021/06/12 06:54:04;;;;;;;17.00;12.27;;;;;;;;;;5116203;27;20836;-71
2021/06/12 06:56:33;;;;;;;18.50;12.60;;;;;;;;;;5112214;27;20451;-71
2021/06/12 06:59:01;;;;;;;14.13;10.93;;;;;;;;;;5116627;27;20439;-72
2021/06/12 07:01:30;;;;;;;18.67;12.97;;;;;;;;;;5116723;27;20454;-71
2021/06/12 07:03:57;;;;;;;13.70;11.40;;;;;;;;;;5115464;27;20451;-70
2021/06/12 07:06:25;;;;;;;14.43;10.80;;;;;;;;;;5117095;27;20451;-70
2021/06/12 07:08:52;;;;;;;17.13;13.00;;;;;;;;;;5116867;27;20840;-71
2021/06/12 07:11:19;;;;;;;19.90;13.10;;;;;;;;;;5116806;27;20451;-69
2021/06/12 07:13:48;;;;;;;17.60;13.07;;;;;;;;;;5116263;27;20459;-70
2021/06/12 07:16:17;;;;;;;17.60;12.70;;;;;;;;;;5116735;27;20461;-70
2021/06/12 07:18:45;;;;;;;15.73;13.07;;;;;;;;;;5116795;27;20492;-71
2021/06/12 07:21:12;;;;;;;14.03;11.60;;;;;;;;;;5116164;27;20446;-71
2021/06/12 07:23:40;;;;;;;12.73;10.43;;;;;;;;;;5116277;27;20540;-70
2021/06/12 07:26:09;;;;;;;13.17;10.80;;;;;;;;;;5109388;28;20469;-70
2021/06/12 07:28:36;;;;;;;14.20;9.47;;;;;;;;;;5112116;27;20473;-69
2021/06/12 07:31:05;;;;;;;11.40;9.10;;;;;;;;;;5115697;27;20447;-69
2021/06/12 07:33:33;;;;;;;18.67;10.20;;;;;;;;;;5114576;27;20470;-71
2021/06/12 07:36:01;;;;;;;12.20;9.33;;;;;;;;;;5099089;28;20877;-70
2021/06/12 07:38:32;;;;;;;14.23;11.17;;;;;;;;;;5100838;28;20910;-69
2021/06/12 07:41:01;;;;;;;14.47;9.10;;;;;;;;;;5117410;27;20996;-68
2021/06/12 07:43:32;;;;;;;14.13;10.00;;;;;;;;;;5116884;27;20459;-69
2021/06/12 07:46:00;;;;;;;13.67;10.07;;;;;;;;;;5115506;27;20458;-69
2021/06/12 07:48:28;;;;;;;13.60;8.80;;;;;;;;;;5116720;27;20459;-69
2021/06/12 07:50:56;;;;;;;13.20;8.90;;;;;;;;;;5116519;27;20546;-70
2021/06/12 07:53:25;;;;;;;14.37;9.00;;;;;;;;;;5115949;27;20526;-69
2021/06/12 07:55:52;;;;;;;11.87;9.03;;;;;;;;;;5115890;27;20864;-69
2021/06/12 07:58:20;;;;;;;12.63;10.63;;;;;;;;;;5115973;27;20487;-69
2021/06/12 08:00:47;;;;;;;14.77;9.17;;;;;;;;;;5116194;27;20537;-70
2021/06/12 08:03:18;;;;;;;10.60;9.00;;;;;;;;;;5109391;27;20496;-71
2021/06/12 08:05:50;;;;;;;12.17;9.40;;;;;;;;;;5108346;27;20935;-70
2021/06/12 08:08:19;;;;;;;11.97;10.23;;;;;;;;;;5097184;28;20941;-70
2021/06/12 08:10:54;;;;;;;13.63;10.70;;;;;;;;;;5113827;27;20482;-70
2021/06/12 08:13:21;;;;;;;12.60;9.70;;;;;;;;;;5111248;27;20765;-70
2021/06/12 08:15:49;;;;;;;14.67;11.13;;;;;;;;;;5105705;27;20511;-70
2021/06/12 08:18:16;;;;;;;17.60;11.20;;;;;;;;;;5113963;27;20490;-70
2021/06/12 08:20:51;;;;;;;13.77;11.90;;;;;;;;;;5112978;27;20728;-71
2021/06/12 08:23:19;;;;;;;18.00;12.40;;;;;;;;;;5114438;27;20470;-71
2021/06/12 08:25:48;;;;;;;15.00;13.40;;;;;;;;;;5114485;27;20482;-69
2021/06/12 08:28:19;;;;;;;14.50;12.93;;;;;;;;;;5113789;27;20514;-70
2021/06/12 08:30:47;;;;;;;16.40;13.10;;;;;;;;;;5116811;27;20990;-69
2021/06/12 08:33:15;;;;;;;16.37;14.40;;;;;;;;;;5118889;27;20545;-70
2021/06/12 08:35:42;;;;;;;17.93;14.10;;;;;;;;;;5118828;27;20443;-70
2021/06/12 08:38:12;;;;;;;16.43;12.23;;;;;;;;;;5120025;27;20493;-72
2021/06/12 08:40:40;;;;;;;13.43;10.10;;;;;;;;;;5118827;27;20853;-72
2021/06/12 08:43:12;;;;;;;15.03;10.93;;;;;;;;;;5118643;27;20466;-72
2021/06/12 08:45:49;;;;;;;18.70;10.60;;;;;;;;;;5116890;27;20473;-72
2021/06/12 08:48:22;;;;;;;11.47;8.10;;;;;;;;;;5118951;27;20470;-72
2021/06/12 08:50:50;;;;;;;12.20;8.20;;;;;;;;;;5118095;27;20461;-71
2021/06/12 08:53:20;;;;;;;12.13;8.13;;;;;;;;;;5118889;27;20459;-70
2021/06/12 08:55:49;;;;;;;8.97;7.77;;;;;;;;;;5119239;27;20844;-71
2021/06/12 08:58:17;;;;;;;9.57;7.47;;;;;;;;;;5117129;27;20650;-71
2021/06/12 09:00:44;;;;;;;12.57;8.90;;;;;;;;;;5115035;27;20454;-71
2021/06/12 09:03:13;;;;;;;10.00;9.00;;;;;;;;;;5117511;27;20455;-72
2021/06/12 09:05:43;;;;;;;10.07;7.63;;;;;;;;;;5118506;27;20889;-71
2021/06/12 09:08:11;;;;;;;10.87;9.37;;;;;;;;;;5117610;27;20466;-71
2021/06/12 09:10:46;;;;;;;14.03;9.10;;;;;;;;;;5118115;27;20526;-71
2021/06/12 09:13:18;;;;;;;11.30;8.80;;;;;;;;;;5116373;27;20457;-71
2021/06/12 09:15:54;;;;;;;12.23;9.50;;;;;;;;;;5118174;27;20450;-71
2021/06/12 09:18:38;;;;;;;15.80;9.93;;;;;;;;;;5117995;27;20470;-70
2021/06/12 09:21:05;;;;;;;12.30;9.70;;;;;;;;;;5117146;27;20450;-71
2021/06/12 09:23:41;;;;;;;11.00;8.73;;;;;;;;;;5116220;27;20478;-71
2021/06/12 09:26:19;;;;;;;10.50;8.17;;;;;;;;;;5115162;27;20454;-70
2021/06/12 09:28:51;;;;;;;19.00;8.20;;;;;;;;;;5116917;27;20466;-70
2021/06/12 09:31:20;;;;;;;9.47;8.00;;;;;;;;;;5114833;27;20565;-69
2021/06/12 09:33:50;;;;;;;9.43;7.17;;;;;;;;;;5116664;27;20482;-71
2021/06/12 09:36:22;;;;;;;8.77;7.50;;;;;;;;;;5115723;27;20483;-71
2021/06/12 09:38:50;;;;;;;11.13;6.10;;;;;;;;;;5116797;27;20569;-72
2021/06/12 09:41:32;;;;;;;10.60;7.90;;;;;;;;;;5116118;27;20481;-71
2021/06/12 09:44:05;;;;;;;8.80;7.90;;;;;;;;;;5108078;27;20604;-71
2021/06/12 09:46:44;;;;;;;9.10;7.77;;;;;;;;;;5118526;27;20881;-71
2021/06/12 09:49:14;;;;;;;11.17;8.20;;;;;;;;;;5113752;27;20572;-71
2021/06/12 09:52:05;;;;;;;10.60;8.13;;;;;;;;;;5115433;27;20478;-69
2021/06/12 09:54:37;;;;;;;11.17;8.30;;;;;;;;;;5116970;27;20529;-71
2021/06/12 09:57:09;;;;;;;9.10;6.70;;;;;;;;;;5117474;27;20737;-72
2021/06/12 09:59:46;;;;;;;10.73;6.80;;;;;;;;;;5096699;28;20562;-71
2021/06/12 10:02:15;;;;;;;14.70;6.20;;;;;;;;;;5096984;28;20491;-72
2021/06/12 10:05:00;;;;;;;8.63;5.33;;;;;;;;;;5112683;27;20465;-72
2021/06/12 10:07:49;;;;;;;8.30;5.33;;;;;;;;;;5119812;27;20518;-72
2021/06/12 10:10:18;;;;;;;6.83;6.20;;;;;;;;;;5118338;27;20447;-71
2021/06/12 10:12:57;;;;;;;9.57;5.53;;;;;;;;;;5114134;28;21026;-71
2021/06/12 10:15:28;;;;;;;9.23;6.83;;;;;;;;;;5117524;27;20458;-70
2021/06/12 10:17:56;;;;;;;11.00;6.20;;;;;;;;;;5118675;27;20489;-70
2021/06/12 10:20:24;;;;;;;7.10;5.87;;;;;;;;;;5117499;27;20902;-70
2021/06/12 10:22:57;;;;;;;7.00;4.90;;;;;;;;;;5118185;27;20455;-71
2021/06/12 10:25:26;;;;;;;6.50;4.40;;;;;;;;;;5112935;27;20463;-69
2021/06/12 10:28:05;;;;;;;5.70;3.57;;;;;;;;;;5116204;27;20458;-70
2021/06/12 10:30:35;;;;;;;10.87;4.83;;;;;;;;;;5117135;27;20459;-70
2021/06/12 10:33:05;;;;;;;5.80;3.80;;;;;;;;;;5116764;27;20466;-71
2021/06/12 10:35:33;;;;;;;8.70;4.47;;;;;;;;;;5116570;27;20485;-71
2021/06/12 10:38:02;;;;;;;4.97;3.50;;;;;;;;;;5116749;27;20893;-70
2021/06/12 10:40:36;;;;;;;6.73;3.60;;;;;;;;;;5117103;27;20463;-71
2021/06/12 10:43:25;;;;;;;4.37;3.50;;;;;;;;;;5116721;27;20922;-70
2021/06/12 10:46:13;;;;;;;4.37;2.63;;;;;;;;;;5113616;27;20789;-70
2021/06/12 10:48:41;;;;;;;3.93;2.20;;;;;;;;;;5107709;28;20471;-71
2021/06/12 10:51:10;;;;;;;5.63;2.93;;;;;;;;;;5111776;27;20481;-72
2021/06/12 10:53:43;;;;;;;7.50;3.07;;;;;;;;;;5114578;27;20448;-73
2021/06/12 10:56:11;;;;;;;4.63;2.27;;;;;;;;;;5116097;27;20451;-71
2021/06/12 11:04:42;;;;;;;2.90;1.80;;;;;;;;;;5089120;27;20435;-71
2021/06/12 11:07:30;;;;;;;4.00;1.90;;;;;;;;;;5115486;27;20466;-71
2021/06/12 11:10:35;;;;;;;3.40;2.00;;;;;;;;;;5116381;27;20486;-71
2021/06/12 11:13:21;;;;;;;5.63;2.43;;;;;;;;;;5099319;27;20447;-70
2021/06/12 11:15:50;;;;;;;5.00;2.17;;;;;;;;;;5098868;28;20553;-70
2021/06/12 11:18:21;;;;;;;3.33;2.00;;;;;;;;;;5114475;27;20483;-71
2021/06/12 11:21:05;;;;;;;3.67;1.80;;;;;;;;;;5113059;27;20519;-72
2021/06/12 11:23:44;;;;;;;2.80;1.60;;;;;;;;;;5112298;27;20458;-69
2021/06/12 11:26:16;;;;;;;5.10;1.47;;;;;;;;;;5105118;27;20558;-69
2021/06/12 11:28:48;;;;;;;3.47;1.50;;;;;;;;;;5111453;28;20466;-69
2021/06/12 11:31:33;;;;;;;3.33;1.60;;;;;;;;;;5109059;27;20448;-69
2021/06/12 11:34:18;;;;;;;5.00;1.37;;;;;;;;;;5110459;27;20464;-71
2021/06/12 11:36:49;;;;;;;4.80;1.13;;;;;;;;;;5110644;27;20819;-70
2021/06/12 11:39:24;;;;;;;2.80;0.90;;;;;;;;;;5112262;27;20493;-71
2021/06/12 11:41:54;;;;;;;2.80;1.47;;;;;;;;;;5114523;27;20454;-71
2021/06/12 11:44:29;;;;;;;9.40;2.30;;;;;;;;;;5109467;27;20538;-72
2021/06/12 11:46:58;;;;;;;2.00;1.10;;;;;;;;;;5096746;28;20483;-72
2021/06/12 11:49:28;;;;;;;5.07;1.63;;;;;;;;;;5095324;28;20463;-71
2021/06/12 11:51:58;;;;;;;4.30;2.23;;;;;;;;;;5095703;28;20463;-70
2021/06/12 11:54:31;;;;;;;2.90;1.73;;;;;;;;;;5108206;27;20451;-72
2021/06/12 11:57:00;;;;;;;2.57;1.40;;;;;;;;;;5114861;27;20454;-71
2021/06/12 11:59:28;;;;;;;2.90;1.10;;;;;;;;;;5108297;27;20512;-70
2021/06/12 12:02:00;;;;;;;3.10;1.60;;;;;;;;;;5107341;28;20632;-70
2021/06/12 12:04:34;;;;;;;4.13;1.27;;;;;;;;;;5116151;27;20467;-70
2021/06/12 12:07:02;;;;;;;5.40;1.30;;;;;;;;;;5114951;27;20496;-69
2021/06/12 12:09:40;;;;;;;1.87;1.00;;;;;;;;;;5112380;28;20474;-69
2021/06/12 12:12:15;;;;;;;2.20;1.20;;;;;;;;;;5107335;28;20455;-69
2021/06/12 12:14:44;;;;;;;3.97;1.63;;;;;;;;;;5094995;28;20471;-70
2021/06/12 12:17:23;;;;;;;3.20;1.67;;;;;;;;;;5094877;28;20859;-69
2021/06/12 12:19:58;;;;;;;3.27;1.07;;;;;;;;;;5105446;28;20741;-69
2021/06/12 12:22:37;;;;;;;2.43;1.10;;;;;;;;;;5114259;27;20555;-69
2021/06/12 12:25:06;;;;;;;2.97;1.23;;;;;;;;;;5106945;27;20496;-70
2021/06/12 12:27:36;;;;;;;6.27;1.43;;;;;;;;;;5116923;27;20844;-69
2021/06/12 12:30:04;;;;;;;2.40;1.20;;;;;;;;;;5115176;27;20494;-69
2021/06/12 12:32:32;;;;;;;4.40;1.67;;;;;;;;;;5116196;27;20455;-70
2021/06/12 12:35:21;;;;;;;2.20;1.40;;;;;;;;;;5117671;27;20522;-70
2021/06/12 12:37:50;;;;;;;3.40;1.37;;;;;;;;;;5116304;27;20864;-70
2021/06/12 12:40:30;;;;;;;5.23;1.73;;;;;;;;;;5097860;28;20527;-70
2021/06/12 12:43:02;;;;;;;4.17;2.07;;;;;;;;;;5107303;28;20452;-70
2021/06/12 12:45:40;;;;;;;4.00;1.63;;;;;;;;;;5096651;28;20451;-72
2021/06/12 12:48:08;;;;;;;5.40;1.87;;;;;;;;;;5106339;27;20450;-71
2021/06/12 12:50:40;;;;;;;2.63;1.43;;;;;;;;;;5112377;27;20474;-72
2021/06/12 12:53:21;;;;;;;3.10;2.20;;;;;;;;;;5106834;27;20462;-71
2021/06/12 12:55:58;;;;;;;2.77;1.53;;;;;;;;;;5107186;28;20463;-71
2021/06/12 12:58:31;;;;;;;6.10;1.77;;;;;;;;;;5110584;28;20478;-71
2021/06/12 13:01:05;;;;;;;5.30;2.03;;;;;;;;;;5115608;27;20523;-70
2021/06/12 13:03:42;;;;;;;3.97;1.57;;;;;;;;;;5114394;27;20447;-70
2021/06/12 13:06:28;;;;;;;3.40;1.50;;;;;;;;;;5113275;27;21087;-71
2021/06/12 13:09:08;;;;;;;6.70;2.10;;;;;;;;;;5094145;28;20455;-69
2021/06/12 13:11:42;;;;;;;4.17;1.00;;;;;;;;;;5109144;27;20458;-70
2021/06/12 13:14:11;;;;;;;3.27;1.20;;;;;;;;;;5114926;27;20576;-71
2021/06/12 13:16:39;;;;;;;2.80;1.30;;;;;;;;;;5116513;27;20486;-69
2021/06/12 13:19:15;;;;;;;2.47;1.50;;;;;;;;;;5118225;27;20478;-70
2021/06/12 13:21:49;;;;;;;3.40;1.23;;;;;;;;;;5119510;27;20491;-68
2021/06/12 13:24:20;;;;;;;3.10;1.73;;;;;;;;;;5117730;27;20463;-70
2021/06/12 13:26:51;;;;;;;2.33;1.40;;;;;;;;;;5118928;27;20470;-70
2021/06/12 13:29:21;;;;;;;2.30;1.40;;;;;;;;;;5118079;27;20454;-70
2021/06/12 13:31:49;;;;;;;2.37;1.60;;;;;;;;;;5117265;27;20451;-71
2021/06/12 13:34:30;;;;;;;3.20;1.47;;;;;;;;;;5115322;27;20535;-72
2021/06/12 13:37:00;;;;;;;2.07;1.47;;;;;;;;;;5116796;27;20959;-70
2021/06/12 13:39:36;;;;;;;2.67;1.10;;;;;;;;;;5118427;27;20703;-70
2021/06/12 13:42:07;;;;;;;2.67;1.20;;;;;;;;;;5118101;27;20469;-70
2021/06/12 13:44:37;;;;;;;6.07;3.30;;;;;;;;;;5117994;27;20545;-71
2021/06/12 13:47:05;;;;;;;4.53;1.73;;;;;;;;;;5117456;27;20550;-72
2021/06/12 13:49:33;;;;;;;3.70;1.57;;;;;;;;;;5116428;27;21062;-71
2021/06/12 13:52:03;;;;;;;5.10;1.50;;;;;;;;;;5115222;27;20455;-71
2021/06/12 13:54:35;;;;;;;1.70;1.10;;;;;;;;;;5104427;27;20520;-71
2021/06/12 13:57:04;;;;;;;6.90;1.50;;;;;;;;;;5108433;27;20553;-71
2021/06/12 13:59:31;;;;;;;3.93;1.47;;;;;;;;;;5116447;27;20870;-71
2021/06/12 14:01:58;;;;;;;3.63;1.43;;;;;;;;;;5119604;27;20793;-71
2021/06/12 14:04:37;;;;;;;4.60;1.40;;;;;;;;;;5126049;27;20458;-70
2021/06/12 14:07:05;;;;;;;5.90;1.97;;;;;;;;;;5115848;27;20455;-70
2021/06/12 14:09:33;;;;;;;7.83;2.07;;;;;;;;;;5117265;27;20459;-71
2021/06/12 14:12:00;;;;;;;2.27;1.10;;;;;;;;;;5117390;27;20857;-70
2021/06/12 14:14:38;;;;;;;2.27;0.93;;;;;;;;;;5117341;27;21075;-71
2021/06/12 14:17:15;;;;;;;4.80;1.10;;;;;;;;;;5116968;27;20447;-71
2021/06/12 14:20:08;;;;;;;5.33;1.50;;;;;;;;;;5116323;27;20546;-71
2021/06/12 14:22:46;;;;;;;2.13;0.83;;;;;;;;;;5115060;27;21108;-70
2021/06/12 14:25:29;;;;;;;1.73;0.80;;;;;;;;;;5104265;27;21169;-70
2021/06/12 14:27:57;;;;;;;2.93;1.10;;;;;;;;;;5112757;27;20465;-70
2021/06/12 14:30:26;;;;;;;3.33;1.40;;;;;;;;;;5116669;27;20458;-70
2021/06/12 14:32:53;;;;;;;8.13;1.10;;;;;;;;;;5117558;27;20470;-70
2021/06/12 14:35:27;;;;;;;4.03;1.40;;;;;;;;;;5117162;27;20454;-70
2021/06/12 14:37:54;;;;;;;1.97;0.80;;;;;;;;;;5115658;27;20565;-70
2021/06/12 14:40:21;;;;;;;2.40;1.20;;;;;;;;;;5105814;27;20518;-70
2021/06/12 14:42:51;;;;;;;2.70;1.53;;;;;;;;;;5117537;27;21115;-69
2021/06/12 14:45:22;;;;;;;5.37;1.40;;;;;;;;;;5116258;27;20943;-70
2021/06/12 14:47:51;;;;;;;3.53;1.27;;;;;;;;;;5114049;27;20455;-69
2021/06/12 14:50:21;;;;;;;3.37;0.87;;;;;;;;;;5116384;27;20600;-70
2021/06/12 14:52:49;;;;;;;5.27;1.57;;;;;;;;;;5100649;28;20482;-69
2021/06/12 14:55:28;;;;;;;3.93;1.30;;;;;;;;;;5105978;28;20773;-70
2021/06/12 14:57:58;;;;;;;4.50;1.17;;;;;;;;;;5110218;27;20471;-69
2021/06/12 15:00:30;;;;;;;2.93;0.80;;;;;;;;;;5101466;28;21033;-71